METAR-TAF

Aéroport de Béziers-Cap d'Agde

Béziers, France

latitude: 43-19N, longitude: 003-21E, altitude: 17 m

Observation

Le bulletin a été fait il y a 34 minutes, à 06:30 UTC
Vent 4 kt de sud-ouest, variant entre sud/sud-ouest et ouest
Température 8°C
Humidité 53%
Pression 1023 hPa
Visibilité 10 km ou plus
pas de nuages en-dessous de 1500 mètres et pas de cumulonimbus.

METAR: LFMU 190630Z AUTO 23004KT 200V260 CAVOK 08/M01 Q1023 BECMG 33010KT

Heure: 09:04 (07:04 UTC)

Prévision

Le bulletin a été fait il y a 5 heures et 4 minutes, à 02:00 UTC
Prévision valable du 19 à 03 UTC au 20 à 03 UTC
Vent 10 kt de nord/nord-ouest
Visibilité 10 km ou plus
pas de nuages en-dessous de 1500 mètres et pas de cumulonimbus.
Temporairement
du 19 à 15 UTC au 19 à 18 UTC
Vent 12 kt de sud/sud-ouest

TAF: LFMU 190200Z 1903/2003 33010KT CAVOK TEMPO 1915/1918 20012KT